Time;durP1;ratioP1;P1;durP2;ratioP2;P2;SDS_P1;SDS_P2;PMS_P1;PMS_P2;Temp;Humidity;BMP_temperature;BMP_pressure;BME280_temperature;BME280_humidity;BME280_pressure;Samples;Min_cycle;Max_cycle;Signal;HPM_P1;HPM_P2
2022/07/14 00:02:13;;;;;;;14.48;3.47;;;;;;;;;;5030276;27;99138;-72
2022/07/14 00:04:39;;;;;;;13.43;3.00;;;;;;;;;;5030332;27;100015;-72
2022/07/14 00:07:06;;;;;;;12.00;3.45;;;;;;;;;;5030780;27;100128;-72
2022/07/14 00:09:32;;;;;;;16.10;2.95;;;;;;;;;;5037845;27;98943;-72
2022/07/14 00:11:58;;;;;;;10.52;2.70;;;;;;;;;;5037549;27;99033;-72
2022/07/14 00:14:25;;;;;;;16.15;2.92;;;;;;;;;;5050130;27;99361;-72
2022/07/14 00:16:51;;;;;;;17.70;3.47;;;;;;;;;;5029101;27;99212;-72
2022/07/14 00:19:18;;;;;;;14.02;3.45;;;;;;;;;;5029875;27;99524;-72
2022/07/14 00:21:44;;;;;;;13.40;2.97;;;;;;;;;;5038923;27;97925;-72
2022/07/14 00:24:11;;;;;;;11.15;2.65;;;;;;;;;;5030354;27;98676;-72
2022/07/14 00:26:40;;;;;;;17.58;3.33;;;;;;;;;;5029437;27;99891;-72
2022/07/14 00:29:07;;;;;;;12.27;3.35;;;;;;;;;;5015701;27;99355;-72
2022/07/14 00:31:35;;;;;;;15.38;3.58;;;;;;;;;;5031546;27;101153;-73
2022/07/14 00:34:02;;;;;;;12.65;2.97;;;;;;;;;;5015678;27;101160;-72
2022/07/14 00:36:28;;;;;;;21.92;4.45;;;;;;;;;;5036377;27;98899;-72
2022/07/14 00:38:55;;;;;;;15.45;4.00;;;;;;;;;;5031443;27;99316;-73
2022/07/14 00:41:22;;;;;;;21.25;3.03;;;;;;;;;;5012361;28;98690;-72
2022/07/14 00:43:48;;;;;;;14.88;3.30;;;;;;;;;;5036754;27;98825;-72
2022/07/14 00:46:15;;;;;;;18.98;3.38;;;;;;;;;;5047617;27;98303;-72
2022/07/14 00:48:41;;;;;;;10.93;2.83;;;;;;;;;;5042839;27;98649;-72
2022/07/14 00:51:07;;;;;;;18.13;3.10;;;;;;;;;;5040430;27;98990;-72
2022/07/14 00:53:34;;;;;;;16.40;3.78;;;;;;;;;;5029642;27;100259;-72
2022/07/14 00:56:01;;;;;;;16.73;3.90;;;;;;;;;;5032912;27;98728;-72
2022/07/14 00:58:27;;;;;;;13.32;3.75;;;;;;;;;;5039489;27;99350;-72
2022/07/14 01:00:54;;;;;;;11.88;3.00;;;;;;;;;;5031285;27;99082;-72
2022/07/14 01:03:21;;;;;;;12.10;2.80;;;;;;;;;;5048753;27;99249;-72
2022/07/14 01:05:47;;;;;;;24.33;3.05;;;;;;;;;;5029172;27;99219;-73
2022/07/14 01:08:14;;;;;;;10.13;3.15;;;;;;;;;;5035721;27;98622;-72
2022/07/14 01:10:40;;;;;;;16.40;3.33;;;;;;;;;;5029357;27;98153;-72
2022/07/14 01:13:07;;;;;;;14.63;3.15;;;;;;;;;;5027787;27;99378;-72
2022/07/14 01:15:33;;;;;;;12.75;3.60;;;;;;;;;;5041994;27;99009;-72
2022/07/14 01:18:00;;;;;;;18.65;3.03;;;;;;;;;;5017780;28;100853;-72
2022/07/14 01:20:27;;;;;;;17.88;3.40;;;;;;;;;;5028300;27;99425;-72
2022/07/14 01:22:53;;;;;;;14.00;3.10;;;;;;;;;;5019149;27;101390;-72
2022/07/14 01:25:21;;;;;;;15.50;2.97;;;;;;;;;;5025927;27;99276;-72
2022/07/14 01:27:48;;;;;;;13.77;3.20;;;;;;;;;;5012031;27;98722;-71
2022/07/14 01:30:15;;;;;;;22.70;3.40;;;;;;;;;;5042844;27;99845;-71
2022/07/14 01:32:42;;;;;;;19.80;3.78;;;;;;;;;;5022406;28;101506;-71
2022/07/14 01:35:09;;;;;;;14.55;3.63;;;;;;;;;;5036342;27;98214;-71
2022/07/14 01:37:36;;;;;;;16.95;3.13;;;;;;;;;;5018762;28;100089;-71
2022/07/14 01:40:02;;;;;;;23.80;3.75;;;;;;;;;;5028351;27;98579;-71
2022/07/14 01:42:29;;;;;;;13.50;3.08;;;;;;;;;;5012256;28;100723;-71
2022/07/14 01:44:55;;;;;;;15.75;3.30;;;;;;;;;;5036668;27;100270;-71
2022/07/14 01:47:22;;;;;;;15.32;3.00;;;;;;;;;;5028492;27;99370;-71
2022/07/14 01:49:49;;;;;;;15.27;3.20;;;;;;;;;;5017735;27;99927;-71
2022/07/14 01:52:15;;;;;;;15.65;3.40;;;;;;;;;;5031089;27;99847;-71
2022/07/14 01:54:42;;;;;;;10.73;3.22;;;;;;;;;;5010534;28;98611;-71
2022/07/14 01:57:09;;;;;;;19.00;3.50;;;;;;;;;;5011977;27;98551;-71
2022/07/14 01:59:36;;;;;;;17.60;3.67;;;;;;;;;;5014546;28;100296;-72
2022/07/14 02:02:03;;;;;;;10.00;3.17;;;;;;;;;;5010651;28;99228;-72
2022/07/14 02:04:29;;;;;;;10.32;2.78;;;;;;;;;;5012303;27;102055;-72
2022/07/14 02:06:56;;;;;;;15.77;3.20;;;;;;;;;;5039612;27;99286;-72
2022/07/14 02:12:32;;;;;;;14.95;3.65;;;;;;;;;;5018270;27;99335;-71
2022/07/14 02:14:59;;;;;;;11.77;3.50;;;;;;;;;;5010999;28;98777;-71
2022/07/14 02:17:26;;;;;;;16.05;3.58;;;;;;;;;;5010468;28;99516;-71
2022/07/14 02:19:52;;;;;;;19.13;3.60;;;;;;;;;;5024838;27;101098;-72
2022/07/14 02:22:20;;;;;;;15.05;3.88;;;;;;;;;;5021294;28;99078;-71
2022/07/14 02:24:46;;;;;;;20.25;4.13;;;;;;;;;;5046091;27;98268;-72
2022/07/14 02:27:12;;;;;;;14.57;4.00;;;;;;;;;;5023024;27;98572;-71
2022/07/14 02:29:39;;;;;;;20.52;4.38;;;;;;;;;;5046196;27;100375;-72
2022/07/14 02:32:07;;;;;;;18.10;3.67;;;;;;;;;;5017882;28;100939;-71
2022/07/14 02:34:33;;;;;;;12.93;3.47;;;;;;;;;;5018700;28;98987;-72
2022/07/14 02:37:00;;;;;;;17.13;4.72;;;;;;;;;;5027856;27;101293;-71
2022/07/14 02:39:26;;;;;;;7.35;3.92;;;;;;;;;;5043363;27;99552;-72
2022/07/14 02:41:52;;;;;;;14.10;3.65;;;;;;;;;;5018047;27;98603;-72
2022/07/14 02:44:19;;;;;;;11.13;3.70;;;;;;;;;;5031328;27;99520;-71
2022/07/14 02:46:45;;;;;;;11.30;4.43;;;;;;;;;;5028870;27;98686;-71
2022/07/14 02:49:12;;;;;;;9.65;3.38;;;;;;;;;;5018244;27;101357;-71
2022/07/14 02:51:41;;;;;;;13.50;3.65;;;;;;;;;;5009191;28;102006;-71
2022/07/14 02:54:07;;;;;;;13.15;3.33;;;;;;;;;;5010652;27;98710;-71
2022/07/14 02:56:36;;;;;;;10.98;3.55;;;;;;;;;;5025380;28;101247;-72
2022/07/14 02:59:06;;;;;;;17.80;3.72;;;;;;;;;;5025370;27;99247;-72
2022/07/14 03:01:35;;;;;;;14.95;3.58;;;;;;;;;;5018135;28;98837;-71
2022/07/14 03:04:06;;;;;;;13.43;3.05;;;;;;;;;;5013524;28;101913;-71
2022/07/14 03:06:33;;;;;;;17.27;3.92;;;;;;;;;;5011400;27;98683;-71
2022/07/14 03:09:00;;;;;;;10.30;2.97;;;;;;;;;;5030446;27;99044;-71
2022/07/14 03:11:27;;;;;;;11.60;3.65;;;;;;;;;;5019384;27;101424;-71
2022/07/14 03:13:53;;;;;;;13.07;2.97;;;;;;;;;;5044350;27;97790;-71
2022/07/14 03:16:20;;;;;;;8.40;3.38;;;;;;;;;;5027712;27;98587;-71
2022/07/14 03:18:50;;;;;;;8.68;3.15;;;;;;;;;;5017305;27;99436;-71
2022/07/14 03:21:19;;;;;;;11.95;3.47;;;;;;;;;;5016600;27;99347;-71
2022/07/14 03:23:50;;;;;;;10.53;3.63;;;;;;;;;;5013439;27;99976;-72
2022/07/14 03:26:22;;;;;;;14.88;3.35;;;;;;;;;;5032724;27;99217;-72
2022/07/14 03:28:48;;;;;;;12.75;3.50;;;;;;;;;;5040789;27;98908;-71
2022/07/14 03:31:15;;;;;;;11.25;3.47;;;;;;;;;;5027720;28;101345;-71
2022/07/14 03:33:43;;;;;;;20.88;3.95;;;;;;;;;;5011317;27;99051;-71
2022/07/14 03:36:10;;;;;;;17.48;4.35;;;;;;;;;;5021014;28;101549;-71
2022/07/14 03:38:36;;;;;;;15.43;4.63;;;;;;;;;;5031614;27;98926;-71
2022/07/14 03:41:06;;;;;;;10.57;3.53;;;;;;;;;;5012611;27;98664;-72
2022/07/14 03:43:35;;;;;;;16.33;3.88;;;;;;;;;;5026834;27;101403;-73
2022/07/14 03:46:03;;;;;;;12.88;3.35;;;;;;;;;;5023463;27;102141;-72
2022/07/14 03:48:32;;;;;;;11.07;3.58;;;;;;;;;;5025468;27;98899;-73
2022/07/14 03:51:02;;;;;;;14.13;4.13;;;;;;;;;;5022163;27;101582;-72
2022/07/14 03:53:30;;;;;;;10.52;3.53;;;;;;;;;;5012940;28;98559;-73
2022/07/14 03:55:58;;;;;;;16.77;4.03;;;;;;;;;;5019933;27;101311;-72
2022/07/14 03:58:25;;;;;;;12.93;3.55;;;;;;;;;;5029929;27;101841;-71
2022/07/14 04:00:52;;;;;;;11.63;4.03;;;;;;;;;;5011560;28;99763;-72
2022/07/14 04:03:19;;;;;;;10.20;3.45;;;;;;;;;;5040527;27;98881;-72
2022/07/14 04:05:47;;;;;;;11.35;3.22;;;;;;;;;;5032133;27;101417;-72
2022/07/14 04:08:15;;;;;;;14.52;3.58;;;;;;;;;;5031951;27;98719;-71
2022/07/14 04:10:49;;;;;;;11.15;3.95;;;;;;;;;;5014977;28;99335;-71
2022/07/14 04:13:16;;;;;;;8.73;3.20;;;;;;;;;;5027864;27;98645;-72
2022/07/14 04:15:42;;;;;;;7.75;3.35;;;;;;;;;;5028778;27;99038;-72
2022/07/14 04:18:09;;;;;;;8.75;3.40;;;;;;;;;;5038376;27;100659;-72
2022/07/14 04:20:36;;;;;;;7.45;2.65;;;;;;;;;;5020276;27;99553;-72
2022/07/14 04:23:04;;;;;;;8.90;3.67;;;;;;;;;;5011852;28;98907;-72
2022/07/14 04:25:31;;;;;;;9.98;3.35;;;;;;;;;;5020202;28;99824;-72
2022/07/14 04:27:58;;;;;;;8.10;3.47;;;;;;;;;;5050911;27;98049;-72
2022/07/14 04:30:25;;;;;;;14.93;3.70;;;;;;;;;;5040974;27;99010;-73
2022/07/14 04:32:53;;;;;;;9.90;2.95;;;;;;;;;;5015920;27;101579;-72
2022/07/14 04:35:19;;;;;;;15.05;3.55;;;;;;;;;;5012121;28;100420;-72
2022/07/14 04:37:46;;;;;;;8.15;3.28;;;;;;;;;;5037170;27;100010;-72
2022/07/14 04:40:27;;;;;;;9.90;2.85;;;;;;;;;;5012333;28;98843;-72
2022/07/14 04:42:54;;;;;;;9.02;3.50;;;;;;;;;;5029918;27;99231;-73
2022/07/14 04:45:22;;;;;;;15.88;3.65;;;;;;;;;;5015646;27;101736;-72
2022/07/14 04:47:49;;;;;;;11.05;3.20;;;;;;;;;;5030970;27;98666;-73
2022/07/14 04:53:01;;;;;;;10.05;3.40;;;;;;;;;;5041518;27;98449;-72
2022/07/14 04:55:50;;;;;;;11.13;3.22;;;;;;;;;;5045923;27;98586;-73
2022/07/14 04:58:32;;;;;;;14.63;4.05;;;;;;;;;;5011976;27;99226;-72
2022/07/14 05:01:01;;;;;;;17.13;4.18;;;;;;;;;;5015412;27;101408;-72
2022/07/14 05:03:32;;;;;;;7.22;3.17;;;;;;;;;;5026261;27;100333;-73
2022/07/14 05:05:58;;;;;;;11.07;3.55;;;;;;;;;;5028811;27;101165;-74
2022/07/14 05:08:25;;;;;;;12.40;3.75;;;;;;;;;;5020139;27;100229;-74
2022/07/14 05:10:53;;;;;;;16.80;4.00;;;;;;;;;;5016259;27;100982;-73
2022/07/14 05:13:19;;;;;;;15.95;4.47;;;;;;;;;;5032649;27;99693;-73
2022/07/14 05:15:45;;;;;;;16.60;4.28;;;;;;;;;;5022506;27;99419;-72
2022/07/14 05:18:12;;;;;;;19.55;3.85;;;;;;;;;;5011037;27;102498;-73
2022/07/14 05:20:39;;;;;;;13.30;3.72;;;;;;;;;;5016194;27;98636;-74
2022/07/14 05:23:07;;;;;;;17.48;3.75;;;;;;;;;;5019814;27;101342;-74
2022/07/14 05:25:34;;;;;;;17.67;3.50;;;;;;;;;;5014088;27;100520;-74
2022/07/14 05:28:00;;;;;;;15.25;3.70;;;;;;;;;;5009903;27;100277;-74
2022/07/14 05:30:29;;;;;;;15.82;4.10;;;;;;;;;;5013179;27;101214;-73
2022/07/14 05:32:56;;;;;;;15.20;4.18;;;;;;;;;;5010836;27;102564;-74
2022/07/14 05:35:23;;;;;;;11.23;4.30;;;;;;;;;;5009016;27;100600;-74
2022/07/14 05:37:51;;;;;;;13.85;3.45;;;;;;;;;;5012881;27;100323;-73
2022/07/14 05:40:17;;;;;;;13.63;3.97;;;;;;;;;;5024044;27;100565;-73
2022/07/14 05:42:46;;;;;;;12.98;3.95;;;;;;;;;;5009496;27;101304;-74
2022/07/14 05:45:13;;;;;;;11.02;3.15;;;;;;;;;;5015225;27;100668;-74
2022/07/14 05:47:42;;;;;;;15.82;3.55;;;;;;;;;;5006380;27;98714;-74
2022/07/14 05:50:09;;;;;;;14.07;3.53;;;;;;;;;;5010995;27;100779;-73
2022/07/14 05:52:36;;;;;;;17.90;3.38;;;;;;;;;;5010939;27;100203;-73
2022/07/14 05:55:02;;;;;;;19.27;3.58;;;;;;;;;;5006029;27;100639;-74
2022/07/14 05:57:30;;;;;;;17.55;3.83;;;;;;;;;;5012502;27;99972;-74
2022/07/14 06:00:06;;;;;;;14.70;3.50;;;;;;;;;;5012450;27;99781;-73
2022/07/14 06:02:40;;;;;;;14.63;4.07;;;;;;;;;;5024576;27;100635;-74
2022/07/14 06:05:10;;;;;;;17.55;3.22;;;;;;;;;;5009654;27;101243;-74
2022/07/14 06:07:37;;;;;;;15.73;3.30;;;;;;;;;;5010426;27;99851;-71
2022/07/14 06:10:05;;;;;;;13.73;3.10;;;;;;;;;;5007692;27;101151;-72
2022/07/14 06:12:32;;;;;;;13.65;2.95;;;;;;;;;;5029072;27;100236;-72
2022/07/14 06:14:59;;;;;;;9.90;2.78;;;;;;;;;;5007609;27;99679;-72
2022/07/14 06:17:25;;;;;;;17.75;3.20;;;;;;;;;;5025004;27;99514;-71
2022/07/14 06:19:52;;;;;;;13.55;2.67;;;;;;;;;;5024156;27;100166;-72
2022/07/14 06:22:19;;;;;;;14.48;3.20;;;;;;;;;;5027736;27;100730;-72
2022/07/14 06:24:45;;;;;;;11.57;2.85;;;;;;;;;;5009647;27;100056;-72
2022/07/14 06:27:17;;;;;;;18.55;3.25;;;;;;;;;;5010565;27;100634;-72
2022/07/14 06:29:45;;;;;;;14.07;3.22;;;;;;;;;;5012063;27;101137;-73
2022/07/14 06:32:12;;;;;;;10.60;2.47;;;;;;;;;;5008678;27;99478;-71
2022/07/14 06:34:40;;;;;;;12.23;3.17;;;;;;;;;;5007915;27;99415;-70
2022/07/14 06:37:13;;;;;;;17.60;3.95;;;;;;;;;;5009157;27;100148;-71
2022/07/14 06:39:41;;;;;;;11.73;2.95;;;;;;;;;;5010092;27;100957;-71
2022/07/14 06:42:07;;;;;;;15.65;3.85;;;;;;;;;;5017045;27;98676;-71
2022/07/14 06:44:41;;;;;;;12.45;3.50;;;;;;;;;;5011465;27;100704;-71
2022/07/14 06:47:07;;;;;;;12.90;3.60;;;;;;;;;;5010022;27;99818;-70
2022/07/14 06:49:34;;;;;;;8.65;2.50;;;;;;;;;;5027406;27;100388;-71
2022/07/14 06:52:00;;;;;;;9.07;3.22;;;;;;;;;;5010252;27;99767;-71
2022/07/14 06:54:28;;;;;;;13.70;2.78;;;;;;;;;;5008446;27;98770;-71
2022/07/14 06:56:55;;;;;;;9.82;2.42;;;;;;;;;;5028149;27;99917;-71
2022/07/14 06:59:22;;;;;;;10.43;2.80;;;;;;;;;;5027683;27;100111;-71
2022/07/14 07:01:49;;;;;;;9.95;2.30;;;;;;;;;;5033871;27;99124;-71
2022/07/14 07:04:15;;;;;;;13.07;2.80;;;;;;;;;;5030344;27;100590;-71
2022/07/14 07:06:44;;;;;;;13.20;3.20;;;;;;;;;;5033455;27;99186;-71
2022/07/14 07:09:11;;;;;;;8.85;2.03;;;;;;;;;;5027269;27;100115;-71
2022/07/14 07:11:38;;;;;;;12.88;3.13;;;;;;;;;;5030713;27;100407;-71
2022/07/14 07:14:05;;;;;;;7.78;2.47;;;;;;;;;;5027794;27;100962;-71
2022/07/14 07:16:31;;;;;;;11.70;2.72;;;;;;;;;;5030862;27;98976;-71
2022/07/14 07:18:58;;;;;;;8.30;2.15;;;;;;;;;;5023375;27;100066;-71
2022/07/14 07:21:24;;;;;;;6.53;1.98;;;;;;;;;;5034961;27;97889;-71
2022/07/14 07:23:51;;;;;;;4.80;2.10;;;;;;;;;;5027897;27;99376;-71
2022/07/14 07:26:17;;;;;;;11.32;2.60;;;;;;;;;;5028527;27;99528;-71
2022/07/14 07:28:44;;;;;;;9.73;2.65;;;;;;;;;;5027109;27;101731;-71
2022/07/14 07:31:10;;;;;;;9.10;2.65;;;;;;;;;;5032455;27;101507;-71
2022/07/14 07:33:38;;;;;;;9.10;2.30;;;;;;;;;;5028174;27;101549;-71
2022/07/14 07:36:04;;;;;;;4.65;2.13;;;;;;;;;;5027005;27;100307;-71
2022/07/14 07:38:31;;;;;;;3.72;2.10;;;;;;;;;;5029885;27;100233;-71
2022/07/14 07:41:00;;;;;;;13.77;2.90;;;;;;;;;;5027620;27;100098;-71
2022/07/14 07:43:27;;;;;;;8.65;2.72;;;;;;;;;;5029989;27;100574;-71
2022/07/14 07:45:53;;;;;;;7.20;2.33;;;;;;;;;;5028754;27;99766;-71
2022/07/14 07:48:20;;;;;;;6.93;2.80;;;;;;;;;;5034037;27;100607;-71
2022/07/14 07:50:46;;;;;;;12.45;2.92;;;;;;;;;;5029915;27;99434;-71
2022/07/14 07:53:13;;;;;;;7.22;2.60;;;;;;;;;;5027678;27;100090;-71
2022/07/14 07:55:40;;;;;;;6.03;2.30;;;;;;;;;;5026819;27;100163;-71
2022/07/14 07:58:07;;;;;;;6.57;2.35;;;;;;;;;;5028196;27;99911;-71
2022/07/14 08:00:33;;;;;;;6.32;2.53;;;;;;;;;;5025967;27;100488;-71
2022/07/14 08:03:01;;;;;;;4.53;1.83;;;;;;;;;;5026686;27;99821;-71
2022/07/14 08:05:28;;;;;;;10.57;2.40;;;;;;;;;;5031634;27;99231;-71
2022/07/14 08:08:14;;;;;;;4.88;1.92;;;;;;;;;;5026973;27;99551;-70
2022/07/14 08:10:41;;;;;;;4.88;2.10;;;;;;;;;;5031511;27;99381;-72
2022/07/14 08:13:08;;;;;;;7.32;2.63;;;;;;;;;;5025955;27;99436;-72
2022/07/14 08:15:34;;;;;;;7.95;2.83;;;;;;;;;;5029641;27;100485;-72
2022/07/14 08:18:01;;;;;;;6.28;2.47;;;;;;;;;;5027375;27;102694;-72
2022/07/14 08:20:27;;;;;;;4.18;2.53;;;;;;;;;;5025547;27;99368;-72
2022/07/14 08:22:54;;;;;;;9.65;2.47;;;;;;;;;;5032933;27;99919;-71
2022/07/14 08:25:20;;;;;;;7.13;2.90;;;;;;;;;;5035665;27;103723;-72
2022/07/14 08:27:47;;;;;;;4.72;2.33;;;;;;;;;;5034273;27;98638;-72
2022/07/14 08:30:13;;;;;;;7.80;2.80;;;;;;;;;;5026255;27;100893;-72
2022/07/14 08:32:40;;;;;;;6.72;2.85;;;;;;;;;;5035520;27;100470;-71
2022/07/14 08:35:08;;;;;;;5.50;2.70;;;;;;;;;;5031409;27;100036;-72
2022/07/14 08:37:35;;;;;;;7.07;2.95;;;;;;;;;;5028614;27;100847;-72
2022/07/14 08:40:03;;;;;;;7.43;2.60;;;;;;;;;;5028534;27;100039;-72
2022/07/14 08:42:31;;;;;;;7.75;2.33;;;;;;;;;;5029550;27;99617;-72
2022/07/14 08:44:58;;;;;;;8.93;2.67;;;;;;;;;;5027366;27;99534;-73
2022/07/14 08:47:24;;;;;;;6.15;2.83;;;;;;;;;;5028827;27;99610;-72
2022/07/14 08:49:51;;;;;;;5.10;2.30;;;;;;;;;;5028437;27;100005;-72
2022/07/14 08:52:28;;;;;;;10.13;3.00;;;;;;;;;;5023885;27;99337;-72
2022/07/14 08:54:55;;;;;;;4.65;1.83;;;;;;;;;;5031739;27;98763;-71
2022/07/14 08:57:21;;;;;;;6.53;1.95;;;;;;;;;;5032881;27;100042;-72
2022/07/14 08:59:48;;;;;;;4.10;1.85;;;;;;;;;;5030913;27;97899;-72
2022/07/14 09:02:14;;;;;;;5.18;2.17;;;;;;;;;;5031230;27;98791;-72
2022/07/14 09:04:45;;;;;;;4.75;1.70;;;;;;;;;;5022979;27;100216;-72
2022/07/14 09:07:12;;;;;;;7.30;1.45;;;;;;;;;;5023999;27;100011;-72
2022/07/14 09:09:38;;;;;;;8.05;2.08;;;;;;;;;;5028066;27;100208;-71
2022/07/14 09:12:08;;;;;;;6.43;1.80;;;;;;;;;;5026106;27;100443;-72
2022/07/14 09:17:27;;;;;;;6.38;2.22;;;;;;;;;;5027589;27;99058;-72
2022/07/14 09:20:10;;;;;;;12.15;2.17;;;;;;;;;;5026729;27;100253;-71
2022/07/14 09:22:42;;;;;;;6.40;2.03;;;;;;;;;;5027396;27;100376;-72
2022/07/14 09:25:08;;;;;;;;;;;;;;;;;;5033041;27;102141;-72
2022/07/14 09:27:35;;;;;;;10.50;1.80;;;;;;;;;;5024636;27;118391;-72
2022/07/14 09:30:02;;;;;;;6.93;2.28;;;;;;;;;;5026840;27;99461;-72
2022/07/14 09:32:41;;;;;;;4.38;1.85;;;;;;;;;;5023218;27;102236;-73
2022/07/14 09:35:08;;;;;;;5.03;1.33;;;;;;;;;;5026286;27;99205;-72
2022/07/14 09:37:37;;;;;;;11.20;1.73;;;;;;;;;;5032436;27;99833;-72
2022/07/14 09:40:04;;;;;;;5.20;1.40;;;;;;;;;;5028928;27;100152;-72
2022/07/14 09:42:50;;;;;;;2.35;1.27;;;;;;;;;;5037743;27;100442;-72
2022/07/14 09:45:17;;;;;;;8.88;1.80;;;;;;;;;;5027396;27;99417;-73
2022/07/14 09:47:53;;;;;;;5.75;1.50;;;;;;;;;;5043340;27;98617;-73
2022/07/14 09:50:33;;;;;;;5.45;1.70;;;;;;;;;;5034550;27;99960;-73
2022/07/14 09:53:08;;;;;;;4.25;1.40;;;;;;;;;;5032302;27;100407;-73
2022/07/14 09:55:36;;;;;;;6.10;2.20;;;;;;;;;;5043896;27;99408;-73
2022/07/14 09:58:02;;;;;;;8.38;1.70;;;;;;;;;;5042846;27;99303;-73
2022/07/14 10:00:29;;;;;;;4.63;1.80;;;;;;;;;;5040696;27;99507;-72
2022/07/14 10:02:56;;;;;;;9.23;1.95;;;;;;;;;;5029710;27;99703;-73
2022/07/14 10:05:23;;;;;;;5.47;1.92;;;;;;;;;;5029424;27;99329;-73
2022/07/14 10:07:50;;;;;;;4.10;1.60;;;;;;;;;;5046223;27;98557;-73
2022/07/14 10:10:22;;;;;;;5.57;1.42;;;;;;;;;;5040907;27;100132;-73
2022/07/14 10:12:49;;;;;;;3.17;1.42;;;;;;;;;;5029596;27;100189;-73
2022/07/14 10:15:16;;;;;;;2.45;1.13;;;;;;;;;;5035881;27;97870;-73
2022/07/14 10:17:42;;;;;;;4.97;1.45;;;;;;;;;;5038180;27;98576;-72
2022/07/14 10:20:11;;;;;;;8.75;1.83;;;;;;;;;;5030924;27;99200;-72
2022/07/14 10:22:38;;;;;;;4.57;1.42;;;;;;;;;;5037602;27;99588;-72
2022/07/14 10:25:05;;;;;;;4.82;1.40;;;;;;;;;;5028941;27;99440;-71
2022/07/14 10:27:39;;;;;;;3.78;1.63;;;;;;;;;;5028487;27;98729;-72
2022/07/14 10:30:05;;;;;;;3.05;1.42;;;;;;;;;;5037980;27;99128;-72
2022/07/14 10:32:32;;;;;;;6.57;1.35;;;;;;;;;;5040852;27;99660;-72
2022/07/14 10:35:01;;;;;;;8.65;1.70;;;;;;;;;;5035038;27;98914;-73
2022/07/14 10:37:46;;;;;;;4.40;1.25;;;;;;;;;;5036081;27;99174;-72
2022/07/14 10:40:31;;;;;;;5.60;1.38;;;;;;;;;;5032971;27;99401;-71
2022/07/14 10:43:05;;;;;;;4.45;1.35;;;;;;;;;;5032936;27;98608;-71
2022/07/14 10:45:48;;;;;;;3.10;1.30;;;;;;;;;;5018397;28;99088;-71
2022/07/14 10:48:46;;;;;;;4.15;1.15;;;;;;;;;;5035953;27;99614;-71
2022/07/14 10:51:28;;;;;;;4.38;1.25;;;;;;;;;;4987579;27;99694;-71
2022/07/14 10:53:57;;;;;;;3.40;1.17;;;;;;;;;;5037312;27;102599;-72
2022/07/14 10:56:44;;;;;;;3.30;1.55;;;;;;;;;;5032774;27;98628;-74
2022/07/14 10:59:26;;;;;;;2.40;0.98;;;;;;;;;;5038813;27;98931;-72
2022/07/14 11:02:11;;;;;;;3.97;1.52;;;;;;;;;;5032909;27;100213;-72
2022/07/14 11:04:56;;;;;;;3.38;1.30;;;;;;;;;;5032447;27;99008;-72
2022/07/14 11:07:32;;;;;;;2.97;1.13;;;;;;;;;;5033033;27;99337;-72
2022/07/14 11:09:58;;;;;;;6.45;1.58;;;;;;;;;;5033948;27;99485;-72
2022/07/14 11:12:25;;;;;;;9.50;1.30;;;;;;;;;;5036343;27;100048;-72
2022/07/14 11:14:51;;;;;;;5.28;1.23;;;;;;;;;;5042296;27;100189;-72
2022/07/14 11:17:32;;;;;;;3.65;1.48;;;;;;;;;;5031123;27;98560;-72
2022/07/14 11:19:59;;;;;;;5.32;1.60;;;;;;;;;;5032729;27;100344;-72
2022/07/14 11:22:29;;;;;;;6.00;1.23;;;;;;;;;;5031652;27;100387;-71
2022/07/14 11:24:58;;;;;;;7.07;1.15;;;;;;;;;;5030704;27;100088;-72
2022/07/14 11:27:28;;;;;;;4.15;1.20;;;;;;;;;;5035755;27;99834;-72
2022/07/14 11:29:58;;;;;;;4.60;1.13;;;;;;;;;;5031228;27;98578;-71
2022/07/14 11:32:29;;;;;;;3.47;0.90;;;;;;;;;;5049804;27;98339;-72
2022/07/14 11:37:56;;;;;;;6.22;1.25;;;;;;;;;;5031724;27;100389;-72
2022/07/14 11:40:42;;;;;;;4.90;1.13;;;;;;;;;;5033523;27;99981;-72
2022/07/14 11:43:27;;;;;;;3.25;1.10;;;;;;;;;;5042388;27;99499;-72
2022/07/14 11:45:57;;;;;;;3.53;1.30;;;;;;;;;;5041836;27;98623;-72
2022/07/14 11:48:31;;;;;;;4.32;0.90;;;;;;;;;;5031359;27;99173;-72
2022/07/14 11:51:01;;;;;;;4.03;1.00;;;;;;;;;;5031433;27;99172;-72
2022/07/14 11:53:28;;;;;;;2.25;0.95;;;;;;;;;;5052990;27;100429;-72
2022/07/14 11:55:54;;;;;;;2.78;1.17;;;;;;;;;;5032733;27;99538;-72
2022/07/14 11:58:24;;;;;;;3.65;1.40;;;;;;;;;;5032977;27;98606;-72
2022/07/14 12:00:54;;;;;;;2.20;1.10;;;;;;;;;;5049766;27;98989;-72
2022/07/14 12:03:21;;;;;;;6.00;1.05;;;;;;;;;;5033826;27;99568;-72
2022/07/14 12:05:52;;;;;;;5.57;1.20;;;;;;;;;;5035027;27;99376;-71
2022/07/14 12:08:23;;;;;;;5.78;1.67;;;;;;;;;;5049195;27;100992;-72
2022/07/14 12:10:49;;;;;;;3.60;1.42;;;;;;;;;;5031640;27;100218;-72
2022/07/14 12:13:17;;;;;;;4.25;1.17;;;;;;;;;;5031176;27;100448;-72
2022/07/14 12:15:44;;;;;;;2.28;1.08;;;;;;;;;;5033569;27;99003;-71
2022/07/14 12:18:12;;;;;;;1.33;1.10;;;;;;;;;;5034199;27;99391;-72
2022/07/14 12:20:45;;;;;;;2.38;1.00;;;;;;;;;;5029214;27;99081;-72
2022/07/14 12:23:12;;;;;;;1.73;0.90;;;;;;;;;;5031442;27;99969;-72
2022/07/14 12:25:40;;;;;;;1.48;0.93;;;;;;;;;;5033171;27;100077;-72
2022/07/14 12:28:09;;;;;;;5.03;1.23;;;;;;;;;;5032743;27;99112;-72
2022/07/14 12:30:43;;;;;;;8.13;1.40;;;;;;;;;;5033409;27;103280;-72
2022/07/14 12:33:11;;;;;;;5.05;1.05;;;;;;;;;;5034638;27;98622;-72
2022/07/14 12:35:39;;;;;;;2.97;1.08;;;;;;;;;;5030374;27;99943;-72
2022/07/14 12:38:06;;;;;;;4.68;1.38;;;;;;;;;;5040704;27;101783;-72
2022/07/14 12:40:48;;;;;;;8.98;1.40;;;;;;;;;;5033507;27;99035;-71
2022/07/14 12:43:21;;;;;;;9.05;1.27;;;;;;;;;;5029583;27;99627;-71
2022/07/14 12:46:04;;;;;;;2.97;1.30;;;;;;;;;;5030139;27;98598;-72
2022/07/14 12:48:32;;;;;;;2.30;1.30;;;;;;;;;;5037071;27;99061;-72
2022/07/14 12:51:18;;;;;;;9.25;1.73;;;;;;;;;;5028663;27;99489;-72
2022/07/14 12:54:03;;;;;;;2.90;1.08;;;;;;;;;;5028492;27;98591;-72
2022/07/14 12:56:31;;;;;;;4.97;1.60;;;;;;;;;;5027814;27;99345;-71
2022/07/14 12:58:59;;;;;;;6.88;1.65;;;;;;;;;;5033049;27;100099;-72
2022/07/14 13:01:26;;;;;;;4.65;1.30;;;;;;;;;;5045817;27;98713;-71
2022/07/14 13:03:58;;;;;;;3.20;1.15;;;;;;;;;;5033232;27;100003;-72
2022/07/14 13:06:25;;;;;;;3.73;1.30;;;;;;;;;;5032996;27;100090;-72
2022/07/14 13:08:52;;;;;;;9.98;1.50;;;;;;;;;;5046347;27;99984;-72
2022/07/14 13:11:18;;;;;;;5.40;1.73;;;;;;;;;;5028966;27;99535;-72
2022/07/14 13:13:47;;;;;;;6.03;1.60;;;;;;;;;;5029861;27;97793;-72
2022/07/14 13:16:28;;;;;;;5.72;1.85;;;;;;;;;;5031513;27;98674;-72
2022/07/14 13:19:01;;;;;;;6.80;1.93;;;;;;;;;;5038123;27;99824;-72
2022/07/14 13:21:48;;;;;;;4.75;1.38;;;;;;;;;;5029008;27;99445;-70
2022/07/14 13:24:22;;;;;;;4.93;1.75;;;;;;;;;;5036189;27;100888;-71
2022/07/14 13:27:06;;;;;;;5.07;1.85;;;;;;;;;;5029479;27;99200;-70
2022/07/14 13:29:40;;;;;;;5.82;1.38;;;;;;;;;;5029321;27;98561;-71
2022/07/14 13:32:08;;;;;;;5.60;1.80;;;;;;;;;;5028888;27;99758;-71
2022/07/14 13:34:34;;;;;;;6.65;1.38;;;;;;;;;;5029236;27;99553;-71
2022/07/14 13:37:01;;;;;;;5.88;1.27;;;;;;;;;;5031675;27;99185;-71
2022/07/14 13:39:28;;;;;;;4.80;1.60;;;;;;;;;;5028548;27;98714;-71
2022/07/14 13:41:55;;;;;;;3.60;1.30;;;;;;;;;;5028437;27;98655;-71
2022/07/14 13:44:21;;;;;;;6.75;1.50;;;;;;;;;;5032148;27;99259;-71
2022/07/14 13:46:48;;;;;;;5.45;1.35;;;;;;;;;;5029108;27;99342;-71
2022/07/14 13:49:15;;;;;;;7.18;1.25;;;;;;;;;;5031902;27;99667;-71
2022/07/14 13:54:28;;;;;;;5.00;1.30;;;;;;;;;;5029891;27;98481;-71
2022/07/14 13:56:55;;;;;;;3.15;1.38;;;;;;;;;;5036443;27;98875;-70
2022/07/14 13:59:21;;;;;;;2.83;1.25;;;;;;;;;;5028896;27;99570;-70
2022/07/14 14:01:47;;;;;;;7.45;1.45;;;;;;;;;;5029109;27;100177;-71
2022/07/14 14:04:14;;;;;;;3.05;1.23;;;;;;;;;;5034903;27;98941;-70
2022/07/14 14:06:50;;;;;;;5.13;1.33;;;;;;;;;;5033740;27;101804;-71
2022/07/14 14:09:17;;;;;;;2.90;1.08;;;;;;;;;;5034010;27;100351;-70
2022/07/14 14:11:44;;;;;;;3.70;1.00;;;;;;;;;;5038572;27;101114;-71
2022/07/14 14:14:11;;;;;;;2.80;1.15;;;;;;;;;;5042210;27;99718;-72
2022/07/14 14:16:38;;;;;;;2.45;1.05;;;;;;;;;;5045872;27;99266;-73
2022/07/14 14:19:17;;;;;;;3.90;1.23;;;;;;;;;;5030464;27;99603;-71
2022/07/14 14:21:45;;;;;;;2.17;1.00;;;;;;;;;;5028607;27;99075;-71
2022/07/14 14:24:11;;;;;;;5.97;1.27;;;;;;;;;;5029724;27;99139;-72
2022/07/14 14:26:39;;;;;;;8.02;1.13;;;;;;;;;;5031102;27;99459;-72
2022/07/14 14:29:05;;;;;;;3.28;1.20;;;;;;;;;;5043056;27;97906;-74
2022/07/14 14:31:40;;;;;;;2.67;1.17;;;;;;;;;;5035850;27;99588;-71
2022/07/14 14:34:07;;;;;;;6.32;1.30;;;;;;;;;;5032348;27;98988;-71
2022/07/14 14:36:33;;;;;;;3.38;0.82;;;;;;;;;;5033572;27;99302;-71
2022/07/14 14:39:00;;;;;;;3.88;1.00;;;;;;;;;;5039568;27;101191;-71
2022/07/14 14:41:27;;;;;;;2.10;1.02;;;;;;;;;;5029242;27;98644;-71
2022/07/14 14:43:54;;;;;;;2.97;1.30;;;;;;;;;;5041295;27;99635;-71
2022/07/14 14:46:20;;;;;;;1.05;0.82;;;;;;;;;;5037943;27;99524;-71
2022/07/14 14:48:47;;;;;;;3.60;0.88;;;;;;;;;;5036764;27;98507;-72
2022/07/14 14:51:14;;;;;;;1.60;1.10;;;;;;;;;;5041740;27;99151;-71
2022/07/14 14:53:40;;;;;;;5.75;1.05;;;;;;;;;;5039668;27;98147;-71
2022/07/14 14:56:06;;;;;;;4.20;1.10;;;;;;;;;;5034414;27;98627;-71
2022/07/14 14:58:33;;;;;;;3.08;1.15;;;;;;;;;;5028549;27;99348;-71